Details From KVNY - Van Nuys
To KPSP - Palm Springs Intl
Flight Number -
Tags Decoded
Created
Modified
Stats Distance 130 nm / 241 km
Max Altitude 0 ft / 0 m
Waypoints 7
Social Downloads 7
Likes 0
Share VATSIM

Download

Looking for another format? Having issues loading an existing format? Contact us
Advertisement - Login to hide

Notes

Decoded

Route

KVNY ADAMM PDZ GARNE PSP TEVUC KPSP

ID Type Via Altitude Latitude Longitude Leg Dist Tot Dist Heading (true) Name
O KVNY APT - 0 ft / 0 m 34.21899˚ -118.49000˚ - 0 nm - -
ADAMM FIX - 0 ft / 0 m 34.01706˚ -117.81681˚ 35 nm 35 nm 110° / 110° -
PDZ VOR - 0 ft / 0 m 33.91833˚ -117.53000˚ 15 nm 51 nm 112° / 113° PARADISE VORTAC
GARNE FIX - 0 ft / 0 m 33.87671˚ -116.56965˚ 47 nm 99 nm 93° / 93° -
PSP VOR - 0 ft / 0 m 33.87003˚ -116.42978˚ 6 nm 105 nm 93° / 93° PALM SPRINGS VORTAC
TEVUC FIX - 0 ft / 0 m 33.67522˚ -116.36519˚ 12 nm 118 nm 165° / 165° -
O KPSP APT - 0 ft / 0 m 33.83517˚ -116.50967˚ 12 nm 130 nm 323° / 323° -

Altitude Profile

Advertisement - Login to hide

KVNY

Details ICAO KVNY (VNY)
Name Van Nuys
Region United States
Timezone America/Los_Angeles (UTC-7.0)
Stats Elevation 802 ft / 244 m (AMSL)
Location 34.210723° -118.489841°
Runways 2
Magnetic Variation 12.036° E

METAR

KVNY 260751Z AUTO 00000KT 10SM CLR 13/09 A3003 RMK AO2 SLP165 T01280094 402110128

Decode

TAF

TAF KVNY 260546Z 2606/2706 VRB03KT P6SM OVC035 FM261900 10010KT P6SM SCT040 FM270400 VRB03KT P6SM SKC

Decode

Departure Runways

ID Width Length Bearing (true) Bearing (mag) Surface Threshold Offset Overrun Length
16L 75 ft / 23 m 4,021 ft / 1,226 m 175.53° 163.49° Asphalt 1,430 ft / 436 m 0 ft / 0 m
16R 151 ft / 46 m 8,022 ft / 2,445 m 175.54° 163.50° Asphalt 1,430 ft / 436 m 151 ft / 46 m
34L 151 ft / 46 m 8,022 ft / 2,445 m 355.54° 343.50° Asphalt 0 ft / 0 m 151 ft / 46 m
34R 75 ft / 23 m 4,021 ft / 1,226 m 355.53° 343.49° Asphalt 0 ft / 0 m 0 ft / 0 m

KPSP

Details ICAO KPSP (PSP)
Name Palm Springs Intl
Region United States
Timezone America/Los_Angeles (UTC-7.0)
Stats Elevation 477 ft / 145 m (AMSL)
Location 33.829677° -116.506218°
Runways 2
Magnetic Variation 11.540° E

METAR

KPSP 260753Z AUTO 31010G18KT 10SM CLR 21/06 A2988 RMK AO2 SLP115 T02110061 403220189

Decode

TAF

TAF KPSP 260520Z 2606/2706 32015G25KT P6SM SKC FM260800 32010KT P6SM SKC FM261200 29006KT P6SM SKC FM261700 32015G25KT P6SM SKC FM262300 32020G30KT P6SM SKC FM270300 32015G25KT P6SM SKC

Decode

Destination Runways

ID Width Length Bearing (true) Bearing (mag) Surface Threshold Offset Overrun Length
13L 75 ft / 23 m 4,958 ft / 1,511 m 143.52° 131.98° Asphalt 0 ft / 0 m 151 ft / 46 m
13R 151 ft / 46 m 10,012 ft / 3,052 m 143.52° 131.98° Asphalt 2,999 ft / 914 m 200 ft / 61 m
31L 151 ft / 46 m 10,012 ft / 3,052 m 323.53° 311.99° Asphalt 1,499 ft / 457 m 200 ft / 61 m
31R 75 ft / 23 m 4,958 ft / 1,511 m 323.53° 311.99° Asphalt 0 ft / 0 m 151 ft / 46 m

Popular Alternatives